ASA67 KSEA-PAKT
Flight info
| Callsign | ASA67 |
|---|---|
| Flight time | 1h 39m |
| Altitude | 38000 |
| Route | BANGR9 PANGL PR |
| Aircraft | B737/M-SDE2E3FGHIRWXY/LB1 |
Departure
| Time | 2026-05-04 22:43 |
|---|---|
| Airport | Seattle–Tacoma International Airport (KSEA) |
Arrival
| Time | 2026-05-05 00:23 |
|---|---|
| Airport | Ketchikan International Airport (PAKT) |
| Time | Latitude | Longitude | Altitude | Speed | Heading |
|---|---|---|---|---|---|
| 2026-05-04 22:01 | 47.44866 | -122.30403 | 408 ft | 0 kts | 45° |
| 2026-05-04 22:31 | 47.44865 | -122.30405 | 406 ft | 2 kts | 45° |
| 2026-05-04 22:32 | 47.44847 | -122.30430 | 405 ft | 4 kts | 36° |
| 2026-05-04 22:32 | 47.44824 | -122.30447 | 407 ft | 4 kts | 4° |
| 2026-05-04 22:32 | 47.44800 | -122.30439 | 407 ft | 4 kts | 315° |
| 2026-05-04 22:32 | 47.44792 | -122.30423 | 407 ft | 1 kts | 297° |
| 2026-05-04 22:35 | 47.44794 | -122.30429 | 407 ft | 4 kts | 297° |
| 2026-05-04 22:35 | 47.44809 | -122.30475 | 407 ft | 0 kts | 289° |
| 2026-05-04 22:36 | 47.44809 | -122.30478 | 407 ft | 1 kts | 278° |
| 2026-05-04 22:36 | 47.44806 | -122.30538 | 406 ft | 8 kts | 267° |
| 2026-05-04 22:36 | 47.44823 | -122.30628 | 405 ft | 10 kts | 323° |
| 2026-05-04 22:36 | 47.44893 | -122.30629 | 407 ft | 10 kts | 0° |
| 2026-05-04 22:37 | 47.44963 | -122.30628 | 409 ft | 10 kts | 0° |
| 2026-05-04 22:37 | 47.45034 | -122.30627 | 412 ft | 11 kts | 0° |
| 2026-05-04 22:37 | 47.45110 | -122.30627 | 414 ft | 12 kts | 0° |
| 2026-05-04 22:37 | 47.45201 | -122.30626 | 414 ft | 16 kts | 0° |
| 2026-05-04 22:38 | 47.45311 | -122.30625 | 414 ft | 16 kts | 0° |
| 2026-05-04 22:38 | 47.45423 | -122.30623 | 421 ft | 16 kts | 360° |
| 2026-05-04 22:38 | 47.45534 | -122.30624 | 426 ft | 16 kts | 360° |
| 2026-05-04 22:38 | 47.45641 | -122.30621 | 432 ft | 15 kts | 1° |
| 2026-05-04 22:39 | 47.45744 | -122.30620 | 426 ft | 15 kts | 0° |
| 2026-05-04 22:39 | 47.45850 | -122.30619 | 431 ft | 15 kts | 360° |
| 2026-05-04 22:39 | 47.45953 | -122.30619 | 432 ft | 16 kts | 0° |
| 2026-05-04 22:39 | 47.46069 | -122.30618 | 434 ft | 18 kts | 0° |
| 2026-05-04 22:40 | 47.46198 | -122.30617 | 430 ft | 19 kts | 0° |
| 2026-05-04 22:40 | 47.46261 | -122.30622 | 440 ft | 7 kts | 340° |
| 2026-05-04 22:40 | 47.46269 | -122.30633 | 440 ft | 0 kts | 311° |
| 2026-05-04 22:41 | 47.46270 | -122.30634 | 440 ft | 0 kts | 311° |
| 2026-05-04 22:41 | 47.46270 | -122.30635 | 433 ft | 0 kts | 311° |
| 2026-05-04 22:41 | 47.46275 | -122.30646 | 440 ft | 6 kts | 303° |
| 2026-05-04 22:42 | 47.46294 | -122.30731 | 440 ft | 10 kts | 274° |
| 2026-05-04 22:42 | 47.46271 | -122.30778 | 440 ft | 4 kts | 184° |
| 2026-05-04 22:42 | 47.46269 | -122.30778 | 429 ft | 0 kts | 180° |
| 2026-05-04 22:43 | 47.46181 | -122.30779 | 438 ft | 44 kts | 180° |
| 2026-05-04 22:43 | 47.45605 | -122.30784 | 423 ft | 118 kts | 180° |
| 2026-05-04 22:43 | 47.44595 | -122.30790 | 513 ft | 163 kts | 182° |
| 2026-05-04 22:43 | 47.43421 | -122.30824 | 1063 ft | 178 kts | 183° |
| 2026-05-04 22:44 | 47.42146 | -122.30894 | 1713 ft | 187 kts | 184° |
| 2026-05-04 22:44 | 47.40821 | -122.30989 | 2473 ft | 194 kts | 184° |
| 2026-05-04 22:44 | 47.39393 | -122.31051 | 3060 ft | 221 kts | 182° |
| 2026-05-04 22:44 | 47.37753 | -122.31063 | 3512 ft | 246 kts | 181° |
| 2026-05-04 22:45 | 47.35944 | -122.31050 | 4039 ft | 270 kts | 180° |
| 2026-05-04 22:45 | 47.32470 | -122.32802 | 6209 ft | 273 kts | 230° |
| 2026-05-04 22:45 | 47.31571 | -122.35254 | 7299 ft | 276 kts | 255° |
| 2026-05-04 22:46 | 47.31203 | -122.38045 | 8347 ft | 280 kts | 262° |
| 2026-05-04 22:46 | 47.30911 | -122.40913 | 9349 ft | 285 kts | 263° |
| 2026-05-04 22:46 | 47.30911 | -122.43846 | 10308 ft | 291 kts | 282° |
| 2026-05-04 22:46 | 47.31626 | -122.46751 | 10743 ft | 317 kts | 298° |
| 2026-05-04 22:47 | 47.32740 | -122.49720 | 11070 ft | 342 kts | 300° |
| 2026-05-04 22:47 | 47.34122 | -122.52626 | 11774 ft | 351 kts | 316° |
| 2026-05-04 22:47 | 47.35951 | -122.54957 | 12734 ft | 353 kts | 320° |
| 2026-05-04 22:47 | 47.37825 | -122.57318 | 13689 ft | 356 kts | 320° |
| 2026-05-04 22:48 | 47.39743 | -122.59735 | 14633 ft | 360 kts | 320° |
| 2026-05-04 22:48 | 47.41640 | -122.62150 | 15613 ft | 362 kts | 320° |
| 2026-05-04 22:48 | 47.43560 | -122.64588 | 16559 ft | 366 kts | 320° |
| 2026-05-04 22:48 | 47.45495 | -122.67053 | 17478 ft | 369 kts | 320° |
| 2026-05-04 22:49 | 47.47444 | -122.69550 | 18305 ft | 371 kts | 320° |
| 2026-05-04 22:49 | 47.49375 | -122.72033 | 18967 ft | 376 kts | 320° |
| 2026-05-04 22:49 | 47.51360 | -122.74593 | 19604 ft | 381 kts | 320° |
| 2026-05-04 22:49 | 47.53364 | -122.77182 | 20273 ft | 384 kts | 320° |
| 2026-05-04 22:50 | 47.55381 | -122.79792 | 20933 ft | 386 kts | 321° |
| 2026-05-04 22:50 | 47.57411 | -122.82423 | 21542 ft | 389 kts | 321° |
| 2026-05-04 22:50 | 47.59458 | -122.85079 | 22116 ft | 393 kts | 321° |
| 2026-05-04 22:50 | 47.61523 | -122.87759 | 22680 ft | 396 kts | 321° |
| 2026-05-04 22:51 | 47.63602 | -122.90461 | 23222 ft | 399 kts | 321° |
| 2026-05-04 22:51 | 47.65669 | -122.93234 | 23746 ft | 402 kts | 319° |
| 2026-05-04 22:51 | 47.67683 | -122.96143 | 24234 ft | 406 kts | 317° |
| 2026-05-04 22:51 | 47.69377 | -122.98665 | 24645 ft | 407 kts | 317° |
| 2026-05-04 22:52 | 47.71112 | -123.01270 | 25095 ft | 408 kts | 317° |
| 2026-05-04 22:52 | 47.73120 | -123.04283 | 25511 ft | 413 kts | 317° |
| 2026-05-04 22:52 | 47.75148 | -123.07316 | 25947 ft | 415 kts | 317° |
| 2026-05-04 22:53 | 47.77192 | -123.10361 | 26393 ft | 416 kts | 317° |
| 2026-05-04 22:53 | 47.79244 | -123.13412 | 26824 ft | 418 kts | 318° |
| 2026-05-04 22:53 | 47.81307 | -123.16476 | 27217 ft | 420 kts | 318° |
| 2026-05-04 22:53 | 47.83382 | -123.19560 | 27606 ft | 423 kts | 318° |
| 2026-05-04 22:54 | 47.85470 | -123.22664 | 27947 ft | 426 kts | 318° |
| 2026-05-04 22:54 | 47.87565 | -123.25784 | 28293 ft | 428 kts | 318° |
| 2026-05-04 22:54 | 47.89674 | -123.28929 | 28668 ft | 430 kts | 318° |
| 2026-05-04 22:54 | 47.91790 | -123.32088 | 29034 ft | 431 kts | 318° |
| 2026-05-04 22:55 | 47.93913 | -123.35260 | 29395 ft | 432 kts | 318° |
| 2026-05-04 22:55 | 47.96040 | -123.38444 | 29721 ft | 434 kts | 318° |
| 2026-05-04 22:55 | 47.98180 | -123.41651 | 29986 ft | 437 kts | 318° |
| 2026-05-04 22:55 | 48.00288 | -123.44812 | 30306 ft | 439 kts | 318° |
| 2026-05-04 22:56 | 48.02438 | -123.48044 | 30698 ft | 438 kts | 318° |
| 2026-05-04 22:56 | 48.04573 | -123.51258 | 31213 ft | 434 kts | 318° |
| 2026-05-04 22:56 | 48.06693 | -123.54452 | 31655 ft | 432 kts | 318° |
| 2026-05-04 22:56 | 48.08812 | -123.57646 | 31998 ft | 433 kts | 319° |
| 2026-05-04 22:57 | 48.10931 | -123.60843 | 32390 ft | 432 kts | 319° |
| 2026-05-04 22:57 | 48.13010 | -123.63985 | 32813 ft | 431 kts | 319° |
| 2026-05-04 22:57 | 48.15143 | -123.67124 | 33233 ft | 427 kts | 323° |
| 2026-05-04 22:57 | 48.17394 | -123.69587 | 33604 ft | 422 kts | 330° |
| 2026-05-04 22:58 | 48.19747 | -123.71818 | 33991 ft | 421 kts | 332° |
| 2026-05-04 22:58 | 48.21849 | -123.73739 | 34344 ft | 419 kts | 333° |
| 2026-05-04 22:58 | 48.24177 | -123.75850 | 34728 ft | 418 kts | 333° |
| 2026-05-04 22:58 | 48.26569 | -123.78032 | 35116 ft | 416 kts | 332° |
| 2026-05-04 22:59 | 48.28708 | -123.80003 | 35484 ft | 415 kts | 332° |
| 2026-05-04 22:59 | 48.30898 | -123.82041 | 35840 ft | 413 kts | 332° |
| 2026-05-04 22:59 | 48.33277 | -123.84271 | 36219 ft | 412 kts | 332° |
| 2026-05-04 22:59 | 48.35697 | -123.86554 | 36582 ft | 412 kts | 332° |
| 2026-05-04 23:00 | 48.38118 | -123.88847 | 36941 ft | 411 kts | 332° |
| 2026-05-04 23:00 | 48.40528 | -123.91138 | 37343 ft | 409 kts | 332° |
| 2026-05-04 23:00 | 48.42926 | -123.93421 | 37703 ft | 407 kts | 332° |
| 2026-05-04 23:00 | 48.45320 | -123.95703 | 37927 ft | 408 kts | 332° |
| 2026-05-04 23:01 | 48.50124 | -124.00289 | 37920 ft | 408 kts | 332° |
| 2026-05-04 23:01 | 48.54881 | -124.04844 | 37925 ft | 402 kts | 332° |
| 2026-05-04 23:02 | 48.59599 | -124.09368 | 37913 ft | 401 kts | 332° |
| 2026-05-04 23:02 | 48.64292 | -124.13880 | 37904 ft | 399 kts | 331° |
| 2026-05-04 23:03 | 48.68963 | -124.18379 | 37911 ft | 397 kts | 331° |
| 2026-05-04 23:03 | 48.73623 | -124.22877 | 37898 ft | 397 kts | 331° |
| 2026-05-04 23:04 | 48.78274 | -124.27377 | 37902 ft | 396 kts | 331° |
| 2026-05-04 23:04 | 48.82913 | -124.31875 | 37893 ft | 396 kts | 331° |
| 2026-05-04 23:05 | 48.87555 | -124.36388 | 37902 ft | 396 kts | 331° |
| 2026-05-04 23:05 | 48.92208 | -124.40918 | 37897 ft | 398 kts | 331° |
| 2026-05-04 23:06 | 48.96845 | -124.45445 | 37898 ft | 399 kts | 331° |
| 2026-05-04 23:06 | 49.01530 | -124.50028 | 37901 ft | 401 kts | 330° |
| 2026-05-04 23:07 | 49.06224 | -124.54632 | 37906 ft | 402 kts | 330° |
| 2026-05-04 23:07 | 49.10932 | -124.59262 | 37890 ft | 402 kts | 330° |
| 2026-05-04 23:08 | 49.15638 | -124.63899 | 37904 ft | 403 kts | 330° |
| 2026-05-04 23:08 | 49.20340 | -124.68543 | 37906 ft | 402 kts | 330° |
| 2026-05-04 23:09 | 49.25039 | -124.73194 | 37902 ft | 402 kts | 330° |
| 2026-05-04 23:09 | 49.29735 | -124.77853 | 37907 ft | 402 kts | 330° |
| 2026-05-04 23:10 | 49.34419 | -124.82510 | 37907 ft | 401 kts | 330° |
| 2026-05-04 23:10 | 49.39091 | -124.87166 | 37906 ft | 401 kts | 330° |
| 2026-05-04 23:11 | 49.43773 | -124.91843 | 37893 ft | 402 kts | 330° |
| 2026-05-04 23:11 | 49.48460 | -124.96536 | 37890 ft | 402 kts | 330° |
| 2026-05-04 23:12 | 49.53149 | -125.01242 | 37889 ft | 402 kts | 330° |
| 2026-05-04 23:12 | 49.57837 | -125.05957 | 37891 ft | 402 kts | 330° |
| 2026-05-04 23:13 | 49.62525 | -125.10684 | 37876 ft | 403 kts | 329° |
| 2026-05-04 23:13 | 49.67205 | -125.15413 | 37876 ft | 402 kts | 329° |
| 2026-05-04 23:14 | 49.71883 | -125.20153 | 37870 ft | 402 kts | 329° |
| 2026-05-04 23:14 | 49.76556 | -125.24898 | 37882 ft | 402 kts | 329° |
| 2026-05-04 23:15 | 49.81229 | -125.29653 | 37877 ft | 402 kts | 329° |
| 2026-05-04 23:15 | 49.85901 | -125.34420 | 37882 ft | 402 kts | 329° |
| 2026-05-04 23:16 | 49.90574 | -125.39197 | 37882 ft | 402 kts | 329° |
| 2026-05-04 23:16 | 49.95246 | -125.43986 | 37876 ft | 402 kts | 329° |
| 2026-05-04 23:17 | 49.99911 | -125.48779 | 37884 ft | 402 kts | 329° |
| 2026-05-04 23:17 | 50.04579 | -125.53587 | 37885 ft | 402 kts | 329° |
| 2026-05-04 23:18 | 50.09212 | -125.58369 | 37885 ft | 402 kts | 329° |
| 2026-05-04 23:18 | 50.13870 | -125.63188 | 37886 ft | 402 kts | 328° |
| 2026-05-04 23:19 | 50.18523 | -125.68014 | 37888 ft | 402 kts | 328° |
| 2026-05-04 23:19 | 50.23170 | -125.72845 | 37888 ft | 402 kts | 328° |
| 2026-05-04 23:20 | 50.27822 | -125.77693 | 37886 ft | 402 kts | 328° |
| 2026-05-04 23:20 | 50.32472 | -125.82551 | 37895 ft | 402 kts | 328° |
| 2026-05-04 23:21 | 50.37116 | -125.87413 | 37895 ft | 402 kts | 328° |
| 2026-05-04 23:21 | 50.41771 | -125.92299 | 37887 ft | 403 kts | 328° |
| 2026-05-04 23:22 | 50.46422 | -125.97193 | 37891 ft | 402 kts | 328° |
| 2026-05-04 23:22 | 50.51069 | -126.02094 | 37885 ft | 402 kts | 328° |
| 2026-05-04 23:23 | 50.55712 | -126.07002 | 37889 ft | 402 kts | 328° |
| 2026-05-04 23:23 | 50.60352 | -126.11919 | 37891 ft | 402 kts | 328° |
| 2026-05-04 23:24 | 50.64986 | -126.16842 | 37896 ft | 402 kts | 328° |
| 2026-05-04 23:24 | 50.69622 | -126.21780 | 37896 ft | 402 kts | 328° |
| 2026-05-04 23:25 | 50.74255 | -126.26725 | 37899 ft | 402 kts | 328° |
| 2026-05-04 23:25 | 50.78884 | -126.31679 | 37903 ft | 402 kts | 328° |
| 2026-05-04 23:26 | 50.83507 | -126.36638 | 37900 ft | 402 kts | 327° |
| 2026-05-04 23:26 | 50.88127 | -126.41606 | 37906 ft | 401 kts | 327° |
| 2026-05-04 23:27 | 50.92747 | -126.46586 | 37906 ft | 402 kts | 327° |
| 2026-05-04 23:27 | 50.96586 | -126.50733 | 37895 ft | 402 kts | 327° |
| 2026-05-04 23:28 | 51.01207 | -126.55737 | 37898 ft | 402 kts | 327° |
| 2026-05-04 23:28 | 51.05824 | -126.60749 | 37906 ft | 402 kts | 327° |
| 2026-05-04 23:29 | 51.10441 | -126.65773 | 37904 ft | 402 kts | 327° |
| 2026-05-04 23:29 | 51.15058 | -126.70809 | 37897 ft | 402 kts | 327° |
| 2026-05-04 23:30 | 51.19672 | -126.75854 | 37893 ft | 402 kts | 327° |
| 2026-05-04 23:30 | 51.24279 | -126.80905 | 37898 ft | 401 kts | 327° |
| 2026-05-04 23:31 | 51.28877 | -126.85958 | 37902 ft | 401 kts | 327° |
| 2026-05-04 23:31 | 51.33475 | -126.91023 | 37904 ft | 401 kts | 327° |
| 2026-05-04 23:32 | 51.38075 | -126.96104 | 37891 ft | 402 kts | 327° |
| 2026-05-04 23:32 | 51.42676 | -127.01197 | 37901 ft | 402 kts | 326° |
| 2026-05-04 23:33 | 51.47245 | -127.06269 | 37908 ft | 402 kts | 326° |
| 2026-05-04 23:33 | 51.51850 | -127.11392 | 37896 ft | 403 kts | 326° |
| 2026-05-04 23:34 | 51.56447 | -127.16521 | 37891 ft | 403 kts | 326° |
| 2026-05-04 23:34 | 51.61050 | -127.21668 | 37898 ft | 403 kts | 326° |
| 2026-05-04 23:35 | 51.65652 | -127.26827 | 37902 ft | 403 kts | 326° |
| 2026-05-04 23:35 | 51.70255 | -127.32001 | 37892 ft | 403 kts | 326° |
| 2026-05-04 23:36 | 51.74859 | -127.37188 | 37898 ft | 404 kts | 326° |
| 2026-05-04 23:36 | 51.79461 | -127.42387 | 37895 ft | 404 kts | 326° |
| 2026-05-04 23:37 | 51.84067 | -127.47603 | 37897 ft | 404 kts | 326° |
| 2026-05-04 23:37 | 51.88672 | -127.52831 | 37903 ft | 404 kts | 325° |
| 2026-05-04 23:38 | 51.93277 | -127.58073 | 37910 ft | 405 kts | 325° |
| 2026-05-04 23:38 | 51.97883 | -127.63330 | 37904 ft | 405 kts | 325° |
| 2026-05-04 23:39 | 52.02490 | -127.68601 | 37907 ft | 405 kts | 325° |
| 2026-05-04 23:39 | 52.07095 | -127.73883 | 37904 ft | 405 kts | 325° |
| 2026-05-04 23:40 | 52.11691 | -127.79169 | 37910 ft | 405 kts | 325° |
| 2026-05-04 23:40 | 52.16292 | -127.84474 | 37904 ft | 405 kts | 325° |
| 2026-05-04 23:41 | 52.20891 | -127.89791 | 37904 ft | 405 kts | 325° |
| 2026-05-04 23:41 | 52.25455 | -127.95080 | 37898 ft | 405 kts | 325° |
| 2026-05-04 23:42 | 52.30044 | -128.00413 | 37899 ft | 405 kts | 324° |
| 2026-05-04 23:42 | 52.34628 | -128.05754 | 37905 ft | 405 kts | 324° |
| 2026-05-04 23:43 | 52.39219 | -128.11115 | 37907 ft | 405 kts | 324° |
| 2026-05-04 23:43 | 52.43796 | -128.16476 | 37916 ft | 405 kts | 324° |
| 2026-05-04 23:44 | 52.48378 | -128.21856 | 37927 ft | 405 kts | 324° |
| 2026-05-04 23:44 | 52.52951 | -128.27239 | 37928 ft | 405 kts | 324° |
| 2026-05-04 23:45 | 52.57526 | -128.32639 | 37930 ft | 405 kts | 324° |
| 2026-05-04 23:45 | 52.62097 | -128.38048 | 37930 ft | 405 kts | 324° |
| 2026-05-04 23:46 | 52.66669 | -128.43473 | 37938 ft | 405 kts | 324° |
| 2026-05-04 23:46 | 52.71237 | -128.48908 | 37940 ft | 405 kts | 323° |
| 2026-05-04 23:47 | 52.75800 | -128.54351 | 37948 ft | 405 kts | 323° |
| 2026-05-04 23:47 | 52.80358 | -128.59802 | 37930 ft | 405 kts | 323° |
| 2026-05-04 23:48 | 52.84913 | -128.65264 | 37935 ft | 404 kts | 323° |
| 2026-05-04 23:48 | 52.89461 | -128.70733 | 37938 ft | 404 kts | 323° |
| 2026-05-04 23:49 | 52.93976 | -128.76175 | 37948 ft | 404 kts | 323° |
| 2026-05-04 23:49 | 52.98518 | -128.81665 | 37945 ft | 404 kts | 323° |
| 2026-05-04 23:50 | 53.03046 | -128.87153 | 37967 ft | 403 kts | 322° |
| 2026-05-04 23:50 | 53.07573 | -128.92654 | 37961 ft | 403 kts | 322° |
| 2026-05-04 23:51 | 53.12101 | -128.98170 | 37954 ft | 403 kts | 322° |
| 2026-05-04 23:51 | 53.16626 | -129.03698 | 37969 ft | 403 kts | 322° |
| 2026-05-04 23:52 | 53.21151 | -129.09241 | 37970 ft | 404 kts | 322° |
| 2026-05-04 23:52 | 53.25681 | -129.14805 | 37967 ft | 404 kts | 322° |
| 2026-05-04 23:53 | 53.30210 | -129.20382 | 37967 ft | 404 kts | 322° |
| 2026-05-04 23:53 | 53.34733 | -129.25967 | 37960 ft | 404 kts | 322° |
| 2026-05-04 23:54 | 53.39260 | -129.31572 | 37979 ft | 405 kts | 322° |
| 2026-05-04 23:54 | 53.43790 | -129.37196 | 37975 ft | 405 kts | 321° |
| 2026-05-04 23:55 | 53.48320 | -129.42837 | 37963 ft | 406 kts | 321° |
| 2026-05-04 23:56 | 53.55117 | -129.51326 | 37969 ft | 405 kts | 321° |
| 2026-05-04 23:56 | 53.59644 | -129.57000 | 37975 ft | 406 kts | 321° |
| 2026-05-04 23:57 | 53.64168 | -129.62687 | 37979 ft | 406 kts | 321° |
| 2026-05-04 23:57 | 53.68699 | -129.68398 | 37982 ft | 407 kts | 321° |
| 2026-05-04 23:58 | 53.73233 | -129.74128 | 37985 ft | 407 kts | 321° |
| 2026-05-04 23:58 | 53.77767 | -129.79873 | 37984 ft | 407 kts | 321° |
| 2026-05-04 23:59 | 53.82300 | -129.85634 | 37986 ft | 408 kts | 320° |
| 2026-05-04 23:59 | 53.86832 | -129.91409 | 37829 ft | 410 kts | 320° |
| 2026-05-04 23:59 | 53.89129 | -129.94344 | 37290 ft | 412 kts | 320° |
| 2026-05-05 00:00 | 53.91407 | -129.97258 | 36628 ft | 410 kts | 320° |
| 2026-05-05 00:00 | 53.92150 | -129.98207 | 36420 ft | 410 kts | 320° |
| 2026-05-05 00:00 | 53.95949 | -130.03077 | 35208 ft | 409 kts | 321° |
| 2026-05-05 00:00 | 53.98220 | -130.05993 | 34432 ft | 410 kts | 321° |
| 2026-05-05 00:01 | 54.00496 | -130.08921 | 33617 ft | 411 kts | 321° |
| 2026-05-05 00:01 | 54.02773 | -130.11853 | 32984 ft | 408 kts | 321° |
| 2026-05-05 00:01 | 54.05024 | -130.14754 | 32392 ft | 404 kts | 321° |
| 2026-05-05 00:01 | 54.07223 | -130.17593 | 31825 ft | 400 kts | 321° |
| 2026-05-05 00:02 | 54.09430 | -130.20448 | 31255 ft | 396 kts | 321° |
| 2026-05-05 00:02 | 54.11637 | -130.23305 | 30691 ft | 393 kts | 321° |
| 2026-05-05 00:02 | 54.13770 | -130.26072 | 30143 ft | 390 kts | 321° |
| 2026-05-05 00:02 | 54.15920 | -130.28864 | 29596 ft | 387 kts | 321° |
| 2026-05-05 00:03 | 54.18036 | -130.31616 | 29023 ft | 384 kts | 321° |
| 2026-05-05 00:03 | 54.20109 | -130.34315 | 28467 ft | 380 kts | 321° |
| 2026-05-05 00:03 | 54.22159 | -130.36987 | 27920 ft | 377 kts | 321° |
| 2026-05-05 00:03 | 54.24093 | -130.39510 | 27391 ft | 374 kts | 321° |
| 2026-05-05 00:04 | 54.26034 | -130.42039 | 26876 ft | 371 kts | 322° |
| 2026-05-05 00:04 | 54.28025 | -130.44322 | 26053 ft | 376 kts | 326° |
| 2026-05-05 00:04 | 54.30065 | -130.46460 | 25448 ft | 375 kts | 327° |
| 2026-05-05 00:04 | 54.32297 | -130.48753 | 24849 ft | 372 kts | 328° |
| 2026-05-05 00:05 | 54.34467 | -130.50977 | 24291 ft | 368 kts | 328° |
| 2026-05-05 00:05 | 54.36652 | -130.53224 | 23745 ft | 364 kts | 328° |
| 2026-05-05 00:05 | 54.38790 | -130.55437 | 23192 ft | 360 kts | 327° |
| 2026-05-05 00:05 | 54.40922 | -130.57655 | 22649 ft | 356 kts | 327° |
| 2026-05-05 00:06 | 54.43030 | -130.59856 | 22109 ft | 353 kts | 327° |
| 2026-05-05 00:06 | 54.45020 | -130.61940 | 21602 ft | 349 kts | 327° |
| 2026-05-05 00:06 | 54.47081 | -130.64102 | 21065 ft | 345 kts | 327° |
| 2026-05-05 00:06 | 54.49121 | -130.66246 | 20543 ft | 342 kts | 327° |
| 2026-05-05 00:07 | 54.51138 | -130.68369 | 20014 ft | 338 kts | 327° |
| 2026-05-05 00:07 | 54.53025 | -130.70358 | 19538 ft | 334 kts | 327° |
| 2026-05-05 00:07 | 54.55001 | -130.72443 | 19011 ft | 331 kts | 327° |
| 2026-05-05 00:07 | 54.56956 | -130.74508 | 18511 ft | 328 kts | 327° |
| 2026-05-05 00:08 | 54.58890 | -130.76554 | 17999 ft | 324 kts | 327° |
| 2026-05-05 00:08 | 54.60804 | -130.78580 | 17489 ft | 321 kts | 327° |
| 2026-05-05 00:08 | 54.62696 | -130.80585 | 16985 ft | 319 kts | 327° |
| 2026-05-05 00:08 | 54.64577 | -130.82582 | 16479 ft | 316 kts | 327° |
| 2026-05-05 00:09 | 54.66444 | -130.84565 | 15973 ft | 314 kts | 327° |
| 2026-05-05 00:09 | 54.68298 | -130.86537 | 15470 ft | 312 kts | 327° |
| 2026-05-05 00:09 | 54.70140 | -130.88498 | 14969 ft | 310 kts | 327° |
| 2026-05-05 00:09 | 54.71970 | -130.90448 | 14469 ft | 308 kts | 327° |
| 2026-05-05 00:10 | 54.73789 | -130.92389 | 13976 ft | 306 kts | 327° |
| 2026-05-05 00:10 | 54.75602 | -130.94326 | 13482 ft | 308 kts | 327° |
| 2026-05-05 00:10 | 54.77447 | -130.96299 | 12972 ft | 315 kts | 327° |
| 2026-05-05 00:10 | 54.79330 | -130.98316 | 12454 ft | 320 kts | 328° |
| 2026-05-05 00:11 | 54.81217 | -131.00338 | 11918 ft | 317 kts | 328° |
| 2026-05-05 00:11 | 54.83064 | -131.02318 | 11384 ft | 315 kts | 328° |
| 2026-05-05 00:11 | 54.84943 | -131.04337 | 10838 ft | 313 kts | 328° |
| 2026-05-05 00:11 | 54.86788 | -131.06320 | 10401 ft | 309 kts | 328° |
| 2026-05-05 00:12 | 54.88575 | -131.08242 | 10200 ft | 297 kts | 328° |
| 2026-05-05 00:12 | 54.90268 | -131.10067 | 10064 ft | 284 kts | 328° |
| 2026-05-05 00:12 | 54.91917 | -131.11845 | 9830 ft | 275 kts | 328° |
| 2026-05-05 00:12 | 54.93534 | -131.13590 | 9461 ft | 272 kts | 328° |
| 2026-05-05 00:13 | 54.95132 | -131.15317 | 9110 ft | 269 kts | 328° |
| 2026-05-05 00:13 | 54.96712 | -131.17026 | 8748 ft | 267 kts | 328° |
| 2026-05-05 00:13 | 54.98288 | -131.18732 | 8369 ft | 266 kts | 328° |
| 2026-05-05 00:13 | 54.99858 | -131.20434 | 7994 ft | 264 kts | 328° |
| 2026-05-05 00:14 | 55.01413 | -131.22120 | 7614 ft | 264 kts | 328° |
| 2026-05-05 00:14 | 55.02974 | -131.23814 | 7212 ft | 264 kts | 329° |
| 2026-05-05 00:14 | 55.04536 | -131.25510 | 6837 ft | 263 kts | 329° |
| 2026-05-05 00:14 | 55.06088 | -131.27198 | 6457 ft | 263 kts | 329° |
| 2026-05-05 00:15 | 55.07629 | -131.28877 | 6128 ft | 260 kts | 328° |
| 2026-05-05 00:15 | 55.09129 | -131.30513 | 5974 ft | 250 kts | 329° |
| 2026-05-05 00:15 | 55.10589 | -131.32105 | 5866 ft | 247 kts | 329° |
| 2026-05-05 00:15 | 55.12026 | -131.33672 | 5742 ft | 240 kts | 328° |
| 2026-05-05 00:16 | 55.13422 | -131.35198 | 5638 ft | 232 kts | 329° |
| 2026-05-05 00:16 | 55.14770 | -131.36672 | 5533 ft | 226 kts | 329° |
| 2026-05-05 00:16 | 55.16072 | -131.38189 | 5319 ft | 224 kts | 323° |
| 2026-05-05 00:16 | 55.17235 | -131.39913 | 5086 ft | 215 kts | 318° |
| 2026-05-05 00:17 | 55.17945 | -131.41077 | 4926 ft | 208 kts | 317° |
| 2026-05-05 00:17 | 55.18960 | -131.42802 | 4687 ft | 198 kts | 316° |
| 2026-05-05 00:17 | 55.19916 | -131.44444 | 4456 ft | 188 kts | 316° |
| 2026-05-05 00:17 | 55.20826 | -131.46016 | 4229 ft | 181 kts | 316° |
| 2026-05-05 00:18 | 55.21721 | -131.47560 | 4030 ft | 180 kts | 316° |
| 2026-05-05 00:18 | 55.22616 | -131.49105 | 3832 ft | 181 kts | 316° |
| 2026-05-05 00:18 | 55.23517 | -131.50658 | 3614 ft | 182 kts | 316° |
| 2026-05-05 00:18 | 55.24393 | -131.52171 | 3400 ft | 172 kts | 316° |
| 2026-05-05 00:19 | 55.25225 | -131.53610 | 3147 ft | 167 kts | 316° |
| 2026-05-05 00:19 | 55.26063 | -131.55054 | 2880 ft | 168 kts | 317° |
| 2026-05-05 00:19 | 55.26894 | -131.56485 | 2631 ft | 168 kts | 316° |
| 2026-05-05 00:19 | 55.27713 | -131.57896 | 2362 ft | 160 kts | 315° |
| 2026-05-05 00:20 | 55.28482 | -131.59215 | 2117 ft | 149 kts | 316° |
| 2026-05-05 00:20 | 55.29210 | -131.60486 | 1896 ft | 147 kts | 314° |
| 2026-05-05 00:20 | 55.29943 | -131.61748 | 1672 ft | 148 kts | 316° |
| 2026-05-05 00:20 | 55.30635 | -131.62933 | 1444 ft | 129 kts | 316° |
| 2026-05-05 00:21 | 55.31240 | -131.63973 | 1232 ft | 116 kts | 315° |
| 2026-05-05 00:21 | 55.31820 | -131.64972 | 1045 ft | 118 kts | 315° |
| 2026-05-05 00:21 | 55.32402 | -131.65976 | 870 ft | 118 kts | 315° |
| 2026-05-05 00:21 | 55.32994 | -131.66983 | 685 ft | 117 kts | 314° |
| 2026-05-05 00:22 | 55.33580 | -131.68017 | 519 ft | 121 kts | 315° |
| 2026-05-05 00:22 | 55.34189 | -131.69039 | 307 ft | 117 kts | 315° |
| 2026-05-05 00:22 | 55.34772 | -131.70037 | 114 ft | 117 kts | 315° |
| 2026-05-05 00:22 | 55.35295 | -131.70936 | 98 ft | 92 kts | 316° |
| 2026-05-05 00:23 | 55.35710 | -131.71642 | 99 ft | 70 kts | 315° |
| 2026-05-05 00:23 | 55.35982 | -131.72104 | 96 ft | 41 kts | 316° |
| 2026-05-05 00:23 | 55.36133 | -131.72335 | 92 ft | 19 kts | 355° |
| 2026-05-05 00:23 | 55.36185 | -131.72179 | 90 ft | 14 kts | 122° |
| 2026-05-05 00:24 | 55.36118 | -131.72053 | 91 ft | 14 kts | 134° |
| 2026-05-05 00:24 | 55.36048 | -131.71923 | 90 ft | 18 kts | 135° |
| 2026-05-05 00:24 | 55.35938 | -131.71721 | 68 ft | 28 kts | 133° |
| 2026-05-05 00:24 | 55.35805 | -131.71484 | 59 ft | 21 kts | 136° |
| 2026-05-05 00:25 | 55.35705 | -131.71315 | 53 ft | 20 kts | 136° |
| 2026-05-05 00:25 | 55.35608 | -131.71151 | 49 ft | 15 kts | 135° |
| 2026-05-05 00:25 | 55.35588 | -131.71067 | 52 ft | 5 kts | 44° |
| 2026-05-05 00:25 | 55.35614 | -131.71024 | 55 ft | 6 kts | 46° |
| 2026-05-05 00:26 | 55.35640 | -131.70977 | 60 ft | 0 kts | 46° |
| 2026-05-05 00:26 | 55.35641 | -131.70975 | 60 ft | 0 kts | 46° |
| 2026-05-05 00:28 | 55.35641 | -131.70976 | 60 ft | 0 kts | 46° |
| 2026-05-05 00:40 | 55.35640 | -131.70976 | 60 ft | 0 kts | 46° |